createdAt,value
2018-09-13T00:00:59.406Z,10.33
2018-09-13T00:03:27.757Z,10.10
2018-09-13T00:05:56.107Z,10.70
2018-09-13T00:08:24.554Z,11.00
2018-09-13T00:10:52.933Z,9.10
2018-09-13T00:13:21.363Z,12.20
2018-09-13T00:15:49.809Z,9.90
2018-09-13T00:18:18.176Z,11.17
2018-09-13T00:20:46.598Z,10.03
2018-09-13T00:23:15.061Z,11.70
2018-09-13T00:25:43.409Z,9.53
2018-09-13T00:28:11.850Z,10.23
2018-09-13T00:30:40.194Z,9.40
2018-09-13T00:33:08.619Z,13.23
2018-09-13T00:35:36.970Z,12.17
2018-09-13T00:38:05.326Z,8.87
2018-09-13T00:40:33.770Z,8.10
2018-09-13T00:43:02.150Z,9.40
2018-09-13T00:45:30.493Z,10.63
2018-09-13T00:47:58.858Z,11.70
2018-09-13T00:50:27.222Z,11.90
2018-09-13T00:52:55.581Z,9.27
2018-09-13T00:55:23.915Z,9.70
2018-09-13T00:57:52.271Z,9.83
2018-09-13T01:00:20.701Z,10.10
2018-09-13T01:02:49.006Z,10.07
2018-09-13T01:05:17.399Z,9.50
2018-09-13T01:07:45.774Z,8.67
2018-09-13T01:10:14.192Z,8.83
2018-09-13T01:12:42.634Z,9.50
2018-09-13T01:15:11.018Z,10.23
2018-09-13T01:17:40.269Z,10.27
2018-09-13T01:20:08.667Z,8.27
2018-09-13T01:22:36.991Z,8.20
2018-09-13T01:25:05.413Z,8.70
2018-09-13T01:27:33.802Z,8.93
2018-09-13T01:30:02.182Z,9.47
2018-09-13T01:32:30.819Z,9.40
2018-09-13T01:34:59.150Z,9.80
2018-09-13T01:37:27.526Z,7.90
2018-09-13T01:39:55.958Z,8.23
2018-09-13T01:42:24.317Z,8.10
2018-09-13T01:44:52.658Z,8.20
2018-09-13T01:47:21.047Z,8.60
2018-09-13T01:49:49.434Z,8.37
2018-09-13T01:52:17.797Z,7.93
2018-09-13T01:54:46.132Z,8.13
2018-09-13T01:57:14.488Z,8.87
2018-09-13T01:59:43.565Z,7.83
2018-09-13T02:02:11.957Z,7.00
2018-09-13T02:04:40.354Z,10.60
2018-09-13T02:07:08.851Z,7.00
2018-09-13T02:09:37.240Z,7.43
2018-09-13T02:12:05.824Z,7.20
2018-09-13T02:14:34.232Z,8.10
2018-09-13T02:17:02.616Z,7.13
2018-09-13T02:19:30.995Z,9.27
2018-09-13T02:21:59.914Z,8.40
2018-09-13T02:24:29.039Z,9.10
2018-09-13T02:26:57.382Z,8.07
2018-09-13T02:29:25.836Z,8.87
2018-09-13T02:31:54.213Z,9.10
2018-09-13T02:34:22.577Z,8.20
2018-09-13T02:36:51.020Z,8.23
2018-09-13T02:39:19.558Z,8.60
2018-09-13T02:41:48.002Z,8.60
2018-09-13T02:44:16.414Z,8.03
2018-09-13T02:46:44.938Z,8.17
2018-09-13T02:49:13.402Z,9.77
2018-09-13T02:51:41.727Z,8.80
2018-09-13T02:54:10.146Z,10.93
2018-09-13T02:56:38.506Z,11.73
2018-09-13T02:59:06.877Z,8.13
2018-09-13T03:01:35.297Z,11.17
2018-09-13T03:04:03.711Z,7.90
2018-09-13T03:06:32.093Z,9.03
2018-09-13T03:09:00.459Z,7.60
2018-09-13T03:11:28.912Z,8.17
2018-09-13T03:13:57.273Z,8.10
2018-09-13T03:16:25.642Z,7.30
2018-09-13T03:18:53.994Z,7.43
2018-09-13T03:21:22.338Z,9.80
2018-09-13T03:23:50.726Z,8.60
2018-09-13T03:26:19.127Z,7.93
2018-09-13T03:28:47.535Z,8.50
2018-09-13T03:31:15.905Z,7.53
2018-09-13T03:33:44.310Z,7.63
2018-09-13T03:36:12.690Z,8.97
2018-09-13T03:38:41.091Z,8.40
2018-09-13T03:41:09.458Z,8.17
2018-09-13T03:43:38.339Z,7.90
2018-09-13T03:46:06.749Z,10.83
2018-09-13T03:48:35.121Z,7.87
2018-09-13T03:51:03.900Z,7.83
2018-09-13T03:53:32.219Z,8.50
2018-09-13T03:56:00.858Z,8.10
2018-09-13T03:58:29.294Z,7.60
2018-09-13T04:00:57.689Z,7.30
2018-09-13T04:03:26.868Z,6.63
2018-09-13T04:05:55.164Z,7.33
2018-09-13T04:08:23.570Z,8.87
2018-09-13T04:10:51.903Z,7.57
2018-09-13T04:13:20.303Z,6.90
2018-09-13T04:15:48.630Z,9.13
2018-09-13T04:18:17.011Z,6.80
2018-09-13T04:20:45.384Z,8.10
2018-09-13T04:23:13.765Z,6.90
2018-09-13T04:25:42.134Z,6.47
2018-09-13T04:28:10.538Z,6.20
2018-09-13T04:30:38.914Z,6.77
2018-09-13T04:33:07.346Z,7.70
2018-09-13T04:35:36.018Z,6.20
2018-09-13T04:38:04.239Z,6.90
2018-09-13T04:40:32.627Z,6.40
2018-09-13T04:43:00.955Z,7.90
2018-09-13T04:45:29.291Z,8.83
2018-09-13T04:47:57.665Z,6.20
2018-09-13T04:50:26.058Z,6.10
2018-09-13T04:52:54.448Z,7.57
2018-09-13T04:55:22.827Z,7.10
2018-09-13T04:57:51.349Z,6.30
2018-09-13T05:00:19.769Z,7.10
2018-09-13T05:02:48.114Z,7.50
2018-09-13T05:05:16.527Z,6.63
2018-09-13T05:07:45.545Z,9.70
2018-09-13T05:10:13.989Z,7.57
2018-09-13T05:12:42.367Z,7.80
2018-09-13T05:15:10.719Z,9.80
2018-09-13T05:17:39.113Z,8.20
2018-09-13T05:20:07.574Z,8.47
2018-09-13T05:22:35.947Z,8.50
2018-09-13T05:25:04.603Z,8.07
2018-09-13T05:27:33.093Z,8.40
2018-09-13T05:30:01.496Z,10.13
2018-09-13T05:32:30.879Z,7.80
2018-09-13T05:34:59.326Z,8.93
2018-09-13T05:37:27.943Z,9.37
2018-09-13T05:39:56.295Z,10.00
2018-09-13T05:42:24.718Z,9.30
2018-09-13T05:44:53.190Z,8.03
2018-09-13T05:47:21.590Z,8.37
2018-09-13T05:49:49.959Z,9.03
2018-09-13T05:52:18.346Z,7.37
2018-09-13T05:54:46.697Z,10.10
2018-09-13T05:57:15.095Z,8.97
2018-09-13T05:59:43.484Z,9.13
2018-09-13T06:02:11.968Z,8.10
2018-09-13T06:04:40.378Z,8.27
2018-09-13T06:07:08.769Z,9.03
2018-09-13T06:09:37.155Z,9.27
2018-09-13T06:12:05.569Z,17.10
2018-09-13T06:14:33.955Z,11.57
2018-09-13T06:17:02.393Z,9.70
2018-09-13T06:19:30.766Z,11.80
2018-09-13T06:21:59.134Z,8.93
2018-09-13T06:24:27.486Z,10.70
2018-09-13T06:26:55.886Z,10.87
2018-09-13T06:29:24.290Z,10.03
2018-09-13T06:31:52.651Z,11.20
2018-09-13T06:34:21.009Z,11.40
2018-09-13T06:36:49.405Z,9.40
2018-09-13T06:39:17.831Z,11.50
2018-09-13T06:41:46.210Z,12.47
2018-09-13T06:44:14.605Z,12.07
2018-09-13T06:46:43.014Z,12.97
2018-09-13T06:49:11.410Z,10.93
2018-09-13T06:51:39.816Z,9.53
2018-09-13T06:54:08.286Z,13.10
2018-09-13T06:56:36.681Z,12.57
2018-09-13T06:59:05.055Z,12.33
2018-09-13T07:01:33.440Z,10.47
2018-09-13T07:04:02.418Z,12.10
2018-09-13T07:06:30.813Z,8.80
2018-09-13T07:08:59.214Z,9.37
2018-09-13T07:11:28.204Z,9.10
2018-09-13T07:13:56.563Z,10.60
2018-09-13T07:16:24.983Z,12.20
2018-09-13T07:18:53.352Z,11.97
2018-09-13T07:21:21.742Z,10.77
2018-09-13T07:23:50.164Z,10.63
2018-09-13T07:26:22.920Z,9.87
2018-09-13T07:28:51.330Z,12.60
2018-09-13T07:31:19.753Z,10.30
2018-09-13T07:33:48.147Z,11.07
2018-09-13T07:36:16.600Z,10.00
2018-09-13T07:38:44.946Z,10.37
2018-09-13T07:41:13.292Z,11.80
2018-09-13T07:43:41.801Z,11.37
2018-09-13T07:46:10.213Z,10.03
2018-09-13T07:48:38.627Z,12.50
2018-09-13T07:51:06.977Z,9.80
2018-09-13T07:53:35.394Z,11.60
2018-09-13T07:56:03.769Z,10.73
2018-09-13T07:58:32.140Z,13.77
2018-09-13T08:01:00.560Z,8.90
2018-09-13T08:03:29.031Z,9.87
2018-09-13T08:05:57.401Z,9.97
2018-09-13T08:08:25.839Z,10.87
2018-09-13T08:10:54.314Z,10.50
2018-09-13T08:13:22.759Z,7.73
2018-09-13T08:15:51.282Z,8.60
2018-09-13T08:18:20.455Z,12.40
2018-09-13T08:20:48.847Z,14.57
2018-09-13T08:23:17.247Z,12.20
2018-09-13T08:25:45.650Z,10.70
2018-09-13T08:28:26.798Z,10.40
2018-09-13T08:30:55.233Z,11.10
2018-09-13T08:33:23.762Z,10.07
2018-09-13T08:35:52.188Z,8.83
2018-09-13T08:38:20.559Z,9.67
2018-09-13T08:40:49.041Z,14.37
2018-09-13T08:43:17.459Z,10.23
2018-09-13T08:45:45.866Z,10.17
2018-09-13T08:48:14.242Z,9.03
2018-09-13T08:50:42.627Z,11.13
2018-09-13T08:53:11.036Z,11.63
2018-09-13T08:55:39.476Z,12.93
2018-09-13T08:58:07.855Z,11.30
2018-09-13T09:00:36.312Z,14.60
2018-09-13T09:03:04.705Z,15.90
2018-09-13T09:05:33.238Z,8.80
2018-09-13T09:08:01.648Z,11.47
2018-09-13T09:10:30.084Z,11.23
2018-09-13T09:12:58.439Z,7.70
2018-09-13T09:15:26.865Z,9.47
2018-09-13T09:17:55.338Z,10.73
2018-09-13T09:20:23.790Z,11.57
2018-09-13T09:22:52.157Z,15.03
2018-09-13T09:25:20.526Z,8.53
2018-09-13T09:27:48.957Z,8.33
2018-09-13T09:30:17.363Z,7.87
2018-09-13T09:32:45.771Z,7.20
2018-09-13T09:35:14.303Z,9.73
2018-09-13T09:37:42.724Z,8.73
2018-09-13T09:40:11.188Z,8.10
2018-09-13T09:42:39.614Z,6.67
2018-09-13T09:45:08.025Z,8.50
2018-09-13T09:47:36.488Z,8.37
2018-09-13T09:50:05.527Z,8.03
2018-09-13T09:52:33.868Z,7.80
2018-09-13T09:55:02.293Z,8.40
2018-09-13T09:57:30.730Z,9.47
2018-09-13T09:59:59.146Z,6.90
2018-09-13T10:02:27.786Z,9.57
2018-09-13T10:04:56.202Z,8.57
2018-09-13T10:07:24.588Z,8.40
2018-09-13T10:09:53.019Z,13.80
2018-09-13T10:12:21.475Z,7.73
2018-09-13T10:14:55.222Z,9.73
2018-09-13T10:17:29.788Z,7.73
2018-09-13T10:20:03.295Z,8.57
2018-09-13T10:22:37.126Z,8.47
2018-09-13T10:25:10.834Z,8.93
2018-09-13T10:27:44.587Z,9.03
2018-09-13T10:30:18.780Z,7.63
2018-09-13T10:32:52.589Z,8.43
2018-09-13T10:35:26.872Z,10.40
2018-09-13T10:38:00.640Z,8.80
2018-09-13T10:40:34.521Z,8.97
2018-09-13T10:43:08.265Z,9.20
2018-09-13T10:45:41.817Z,10.17
2018-09-13T10:48:30.437Z,10.87
2018-09-13T10:51:04.202Z,10.80
2018-09-13T10:53:38.015Z,8.23
2018-09-13T10:56:07.644Z,9.10
2018-09-13T10:58:36.033Z,11.43
2018-09-13T11:01:04.432Z,11.17
2018-09-13T11:03:32.858Z,10.10
2018-09-13T11:06:01.327Z,9.10
2018-09-13T11:08:29.801Z,10.90
2018-09-13T11:10:58.495Z,8.97
2018-09-13T11:13:35.811Z,9.70
2018-09-13T11:16:04.185Z,8.53
2018-09-13T11:18:32.599Z,12.10
2018-09-13T11:21:01.022Z,9.13
2018-09-13T11:23:29.597Z,10.43
2018-09-13T11:25:57.915Z,11.73
2018-09-13T11:28:26.411Z,9.37
2018-09-13T11:31:00.248Z,17.40
2018-09-13T11:33:28.688Z,9.80
2018-09-13T11:35:57.070Z,7.90
2018-09-13T11:38:25.692Z,8.90
2018-09-13T11:40:54.444Z,9.10
2018-09-13T11:43:22.616Z,11.30
2018-09-13T11:45:51.102Z,8.27
2018-09-13T11:48:19.506Z,11.30
2018-09-13T11:50:48.107Z,9.60
2018-09-13T11:53:16.548Z,9.43
2018-09-13T11:55:45.859Z,10.83
2018-09-13T11:58:15.903Z,8.50
2018-09-13T12:00:44.472Z,11.43
2018-09-13T12:03:14.075Z,7.67
2018-09-13T12:05:42.514Z,7.73
2018-09-13T12:08:10.907Z,9.47
2018-09-13T12:10:39.311Z,7.57
2018-09-13T12:13:07.693Z,8.30
2018-09-13T12:15:36.063Z,12.40
2018-09-13T12:18:04.541Z,8.07
2018-09-13T12:20:32.959Z,8.60
2018-09-13T12:23:01.339Z,9.77
2018-09-13T12:25:29.771Z,7.97
2018-09-13T12:27:58.130Z,9.40
2018-09-13T12:30:26.535Z,10.30
2018-09-13T12:32:54.943Z,10.33
2018-09-13T12:35:23.316Z,7.83
2018-09-13T12:37:51.928Z,6.80
2018-09-13T12:40:20.350Z,7.90
2018-09-13T12:42:48.742Z,9.07
2018-09-13T12:45:17.184Z,8.83
2018-09-13T12:47:45.583Z,7.97
2018-09-13T12:50:14.061Z,8.33
2018-09-13T12:52:42.495Z,8.10
2018-09-13T12:55:10.891Z,7.67
2018-09-13T12:57:39.270Z,15.33
2018-09-13T13:00:07.742Z,7.50
2018-09-13T13:02:36.418Z,7.70
2018-09-13T13:05:04.933Z,7.73
2018-09-13T13:07:33.300Z,9.77
2018-09-13T13:10:01.714Z,8.80
2018-09-13T13:12:30.167Z,8.90
2018-09-13T13:14:58.580Z,9.43
2018-09-13T13:17:27.043Z,8.40
2018-09-13T13:19:55.624Z,7.70
2018-09-13T13:22:23.888Z,11.47
2018-09-13T13:24:52.282Z,8.90
2018-09-13T13:27:20.721Z,8.30
2018-09-13T13:29:49.137Z,7.90
2018-09-13T13:32:17.554Z,7.00
2018-09-13T13:34:45.959Z,12.33
2018-09-13T13:37:14.407Z,9.67
2018-09-13T13:39:42.819Z,8.60
2018-09-13T13:42:11.142Z,7.97
2018-09-13T13:44:39.549Z,7.77
2018-09-13T13:47:08.061Z,6.60
2018-09-13T13:49:36.483Z,6.73
2018-09-13T13:52:04.926Z,6.63
2018-09-13T13:54:33.500Z,7.40
2018-09-13T13:57:01.892Z,5.27
2018-09-13T13:59:30.334Z,7.07
2018-09-13T14:01:58.758Z,6.40
2018-09-13T14:04:27.159Z,7.00
2018-09-13T14:06:55.528Z,7.17
2018-09-13T14:09:23.931Z,6.00
2018-09-13T14:11:52.328Z,8.70
2018-09-13T14:14:20.697Z,6.77
2018-09-13T14:16:49.139Z,6.00
2018-09-13T14:19:17.614Z,6.67
2018-09-13T14:21:45.977Z,6.30
2018-09-13T14:24:14.410Z,6.20
2018-09-13T14:26:42.772Z,4.80
2018-09-13T14:29:11.131Z,5.53
2018-09-13T14:31:39.551Z,5.57
2018-09-13T14:34:08.316Z,6.73
2018-09-13T14:36:36.797Z,5.63
2018-09-13T14:39:07.154Z,6.93
2018-09-13T14:41:35.833Z,6.20
2018-09-13T14:44:04.734Z,8.00
2018-09-13T14:46:33.086Z,6.47
2018-09-13T14:49:01.481Z,5.90
2018-09-13T14:51:29.854Z,6.07
2018-09-13T14:53:58.223Z,5.90
2018-09-13T14:56:26.646Z,8.13
2018-09-13T14:58:55.069Z,5.60
2018-09-13T15:01:23.477Z,6.07
2018-09-13T15:03:51.867Z,7.10
2018-09-13T15:06:20.250Z,6.70
2018-09-13T15:08:48.611Z,6.60
2018-09-13T15:11:17.023Z,6.30
2018-09-13T15:13:45.468Z,7.33
2018-09-13T15:16:13.861Z,9.93
2018-09-13T15:18:42.331Z,8.47
2018-09-13T15:21:10.686Z,9.10
2018-09-13T15:23:39.156Z,6.40
2018-09-13T15:26:07.536Z,6.97
2018-09-13T15:28:35.886Z,8.13
2018-09-13T15:31:04.484Z,6.50
2018-09-13T15:33:32.852Z,6.67
2018-09-13T15:36:01.235Z,6.50
2018-09-13T15:38:29.711Z,6.50
2018-09-13T15:40:58.048Z,6.93
2018-09-13T15:43:26.413Z,6.90
2018-09-13T15:45:54.783Z,6.70
2018-09-13T15:48:23.169Z,6.53
2018-09-13T15:50:51.553Z,8.30
2018-09-13T15:53:19.969Z,7.83
2018-09-13T15:55:48.357Z,8.60
2018-09-13T15:58:16.793Z,6.53
2018-09-13T16:00:45.173Z,7.53
2018-09-13T16:03:13.564Z,6.30
2018-09-13T16:05:41.951Z,7.83
2018-09-13T16:08:10.336Z,7.33
2018-09-13T16:10:38.709Z,8.13
2018-09-13T16:13:07.423Z,8.60
2018-09-13T16:15:35.678Z,8.00
2018-09-13T16:18:04.118Z,7.37
2018-09-13T16:20:32.431Z,8.17
2018-09-13T16:23:00.795Z,7.97
2018-09-13T16:25:29.143Z,6.70
2018-09-13T16:27:57.595Z,5.80
2018-09-13T16:30:25.911Z,6.53
2018-09-13T16:32:55.143Z,7.47
2018-09-13T16:35:23.529Z,6.90
2018-09-13T16:37:57.242Z,5.90
2018-09-13T16:40:31.130Z,6.60
2018-09-13T16:43:04.778Z,7.13
2018-09-13T16:45:33.263Z,7.43
2018-09-13T16:48:03.259Z,6.97
2018-09-13T16:50:31.626Z,7.00
2018-09-13T16:53:00.133Z,6.90
2018-09-13T16:55:28.594Z,6.80
2018-09-13T16:57:56.961Z,6.73
2018-09-13T17:00:26.359Z,7.87
2018-09-13T17:02:55.257Z,7.10
2018-09-13T17:05:23.651Z,6.53
2018-09-13T17:07:52.003Z,5.93
2018-09-13T17:10:20.423Z,7.10
2018-09-13T17:12:48.758Z,6.50
2018-09-13T17:15:17.274Z,9.03
2018-09-13T17:17:45.639Z,11.03
2018-09-13T17:20:14.098Z,10.50
2018-09-13T17:22:42.753Z,8.00
2018-09-13T17:25:11.155Z,207.70
2018-09-13T17:27:39.553Z,209.63
2018-09-13T17:30:08.037Z,221.87
2018-09-13T17:32:36.450Z,10.63
2018-09-13T17:35:04.870Z,12.87
2018-09-13T17:37:33.735Z,8.50
2018-09-13T17:40:02.149Z,15.47
2018-09-13T17:42:30.570Z,9.07
2018-09-13T17:44:58.904Z,13.53
2018-09-13T17:47:27.423Z,11.67
2018-09-13T17:49:55.775Z,10.30
2018-09-13T17:52:24.159Z,8.03
2018-09-13T17:54:52.531Z,8.63
2018-09-13T17:57:20.973Z,8.07
2018-09-13T17:59:49.385Z,7.37
2018-09-13T18:02:17.839Z,7.93
2018-09-13T18:04:46.211Z,7.47
2018-09-13T18:07:14.606Z,9.10
2018-09-13T18:09:43.000Z,7.47
2018-09-13T18:12:11.363Z,7.90
2018-09-13T18:14:39.746Z,9.13
2018-09-13T18:17:08.136Z,7.77
2018-09-13T18:19:36.572Z,7.10
2018-09-13T18:22:04.963Z,7.20
2018-09-13T18:24:33.365Z,7.57
2018-09-13T18:27:01.850Z,8.00
2018-09-13T18:29:30.295Z,7.07
2018-09-13T18:31:58.635Z,7.87
2018-09-13T18:34:27.052Z,7.10
2018-09-13T18:36:55.451Z,9.40
2018-09-13T18:39:23.870Z,7.20
2018-09-13T18:41:52.265Z,8.03
2018-09-13T18:44:20.667Z,8.60
2018-09-13T18:46:49.023Z,7.53
2018-09-13T18:49:17.413Z,8.17
2018-09-13T18:51:45.855Z,7.27
2018-09-13T18:54:14.373Z,10.00
2018-09-13T18:56:42.653Z,10.77
2018-09-13T18:59:11.075Z,7.90
2018-09-13T19:01:39.506Z,7.47
2018-09-13T19:04:07.958Z,12.07
2018-09-13T19:06:36.384Z,11.57
2018-09-13T19:09:07.898Z,10.20
2018-09-13T19:11:36.330Z,8.03
2018-09-13T19:14:04.893Z,7.67
2018-09-13T19:16:33.252Z,8.90
2018-09-13T19:19:01.705Z,8.27
2018-09-13T19:21:30.171Z,8.37
2018-09-13T19:23:58.548Z,7.80
2018-09-13T19:26:27.002Z,9.90
2018-09-13T19:28:55.430Z,8.03
2018-09-13T19:31:23.880Z,7.30
2018-09-13T19:33:52.284Z,8.27
2018-09-13T19:36:20.717Z,7.93
2018-09-13T19:38:49.115Z,6.70
2018-09-13T19:41:17.598Z,7.13
2018-09-13T19:43:45.989Z,7.27
2018-09-13T19:46:14.467Z,9.10
2018-09-13T19:48:42.849Z,7.10
2018-09-13T19:51:11.266Z,6.80
2018-09-13T19:53:39.730Z,7.73
2018-09-13T19:56:08.197Z,6.60
2018-09-13T19:58:36.565Z,5.90
2018-09-13T20:01:05.028Z,6.27
2018-09-13T20:03:33.461Z,5.67
2018-09-13T20:06:01.814Z,5.70
2018-09-13T20:08:30.265Z,6.43
2018-09-13T20:10:58.643Z,6.00
2018-09-13T20:13:27.033Z,6.40
2018-09-13T20:15:55.435Z,5.70
2018-09-13T20:18:23.981Z,6.47
2018-09-13T20:20:52.342Z,6.73
2018-09-13T20:23:20.832Z,6.00
2018-09-13T20:25:49.200Z,5.80
2018-09-13T20:28:17.572Z,6.87
2018-09-13T20:30:46.110Z,6.30
2018-09-13T20:33:14.523Z,6.80
2018-09-13T20:35:42.973Z,6.63
2018-09-13T20:38:11.434Z,6.87
2018-09-13T20:40:39.892Z,8.60
2018-09-13T20:43:08.331Z,9.57
2018-09-13T20:48:16.191Z,7.77
2018-09-13T20:50:45.325Z,8.27
2018-09-13T20:53:13.747Z,7.90
2018-09-13T20:55:42.206Z,6.93
2018-09-13T20:58:10.625Z,7.87
2018-09-13T21:00:39.124Z,6.70
2018-09-13T21:03:07.758Z,7.07
2018-09-13T21:05:36.178Z,6.10
2018-09-13T21:08:04.794Z,6.03
2018-09-13T21:10:33.195Z,6.07
2018-09-13T21:13:01.578Z,5.13
2018-09-13T21:15:29.998Z,6.00
2018-09-13T21:17:58.335Z,6.70
2018-09-13T21:20:27.166Z,5.97
2018-09-13T21:22:55.559Z,6.13
2018-09-13T21:25:23.929Z,5.20
2018-09-13T21:27:52.356Z,5.30
2018-09-13T21:30:20.898Z,5.03
2018-09-13T21:32:49.378Z,4.33
2018-09-13T21:35:17.816Z,4.43
2018-09-13T21:37:46.284Z,4.33
2018-09-13T21:40:14.667Z,4.60
2018-09-13T21:42:43.102Z,4.50
2018-09-13T21:45:11.527Z,3.50
2018-09-13T21:47:40.019Z,3.70
2018-09-13T21:50:08.448Z,5.20
2018-09-13T21:52:36.872Z,4.00
2018-09-13T21:55:05.240Z,3.70
2018-09-13T21:57:33.665Z,3.57
2018-09-13T22:00:02.058Z,4.63
2018-09-13T22:02:30.420Z,3.40
2018-09-13T22:04:58.800Z,4.37
2018-09-13T22:07:27.185Z,5.47
2018-09-13T22:09:55.572Z,3.50
2018-09-13T22:12:24.003Z,4.67
2018-09-13T22:14:52.417Z,4.77
2018-09-13T22:17:21.804Z,4.30
2018-09-13T22:19:50.486Z,4.83
2018-09-13T22:22:18.960Z,6.63
2018-09-13T22:24:47.363Z,6.53
2018-09-13T22:27:15.808Z,5.43
2018-09-13T22:29:44.216Z,4.77
2018-09-13T22:32:12.632Z,4.20
2018-09-13T22:34:41.100Z,4.33
2018-09-13T22:37:09.460Z,4.63
2018-09-13T22:39:37.863Z,6.00
2018-09-13T22:42:06.566Z,5.20
2018-09-13T22:44:42.030Z,5.17
2018-09-13T22:47:11.199Z,4.83
2018-09-13T22:49:40.099Z,4.00
2018-09-13T22:52:08.783Z,4.80
2018-09-13T22:54:37.212Z,4.70
2018-09-13T22:57:07.170Z,4.43
2018-09-13T22:59:35.574Z,5.00
2018-09-13T23:02:03.969Z,4.00
2018-09-13T23:04:32.527Z,4.10
2018-09-13T23:07:00.866Z,4.10
2018-09-13T23:09:29.298Z,4.77
2018-09-13T23:11:57.682Z,4.57
2018-09-13T23:14:26.068Z,4.10
2018-09-13T23:16:54.432Z,4.93
2018-09-13T23:19:22.820Z,5.10
2018-09-13T23:21:51.193Z,3.70
2018-09-13T23:24:19.618Z,4.17
2018-09-13T23:26:48.002Z,4.90
2018-09-13T23:29:16.376Z,4.57
2018-09-13T23:31:45.297Z,4.77
2018-09-13T23:34:13.674Z,5.47
2018-09-13T23:36:42.022Z,6.17
2018-09-13T23:39:10.839Z,4.73
2018-09-13T23:41:40.125Z,4.43
2018-09-13T23:44:08.538Z,4.83
2018-09-13T23:46:37.051Z,5.50
2018-09-13T23:49:05.385Z,6.10
2018-09-13T23:51:34.103Z,6.07
2018-09-13T23:54:02.491Z,5.17
2018-09-13T23:56:30.851Z,6.07
2018-09-13T23:58:59.282Z,8.73
